sensor_id;sensor_type;location;lat;lon;timestamp;pressure;altitude;pressure_sealevel;temperature;humidity
21290;BME280;10804;48.988;2.408;2022-07-22T00:02:01;101267.44;;;25.60;52.19
21290;BME280;10804;48.988;2.408;2022-07-22T00:04:28;101263.19;;;25.57;52.23
21290;BME280;10804;48.988;2.408;2022-07-22T00:06:55;101265.97;;;25.56;52.32
21290;BME280;10804;48.988;2.408;2022-07-22T00:09:23;101260.78;;;25.54;52.34
21290;BME280;10804;48.988;2.408;2022-07-22T00:11:50;101266.34;;;25.51;52.49
21290;BME280;10804;48.988;2.408;2022-07-22T00:14:18;101263.81;;;25.50;52.34
21290;BME280;10804;48.988;2.408;2022-07-22T00:16:46;101263.06;;;25.48;52.44
21290;BME280;10804;48.988;2.408;2022-07-22T00:19:14;101267.56;;;25.47;52.36
21290;BME280;10804;48.988;2.408;2022-07-22T00:21:41;101265.97;;;25.45;52.51
21290;BME280;10804;48.988;2.408;2022-07-22T00:24:09;101258.94;;;25.44;52.43
21290;BME280;10804;48.988;2.408;2022-07-22T00:26:36;101263.56;;;25.42;52.46
21290;BME280;10804;48.988;2.408;2022-07-22T00:29:04;101253.09;;;25.39;52.45
21290;BME280;10804;48.988;2.408;2022-07-22T00:31:31;101254.19;;;25.36;52.53
21290;BME280;10804;48.988;2.408;2022-07-22T00:34:01;101251.66;;;25.35;52.67
21290;BME280;10804;48.988;2.408;2022-07-22T00:36:28;101248.22;;;25.33;52.61
21290;BME280;10804;48.988;2.408;2022-07-22T00:38:56;101246.53;;;25.32;52.58
21290;BME280;10804;48.988;2.408;2022-07-22T00:41:23;101243.16;;;25.30;52.64
21290;BME280;10804;48.988;2.408;2022-07-22T00:43:53;101230.78;;;25.29;52.56
21290;BME280;10804;48.988;2.408;2022-07-22T00:46:21;101235.50;;;25.25;52.57
21290;BME280;10804;48.988;2.408;2022-07-22T00:48:49;101237.19;;;25.26;52.67
21290;BME280;10804;48.988;2.408;2022-07-22T00:51:18;101231.25;;;25.23;52.74
21290;BME280;10804;48.988;2.408;2022-07-22T00:53:46;101227.81;;;25.21;52.70
21290;BME280;10804;48.988;2.408;2022-07-22T00:56:14;101229.75;;;25.19;52.84
21290;BME280;10804;48.988;2.408;2022-07-22T00:58:43;101227.31;;;25.16;52.67
21290;BME280;10804;48.988;2.408;2022-07-22T01:01:11;101225.63;;;25.15;52.65
21290;BME280;10804;48.988;2.408;2022-07-22T01:03:39;101222.34;;;25.11;52.78
21290;BME280;10804;48.988;2.408;2022-07-22T01:06:07;101222.34;;;25.11;52.68
21290;BME280;10804;48.988;2.408;2022-07-22T01:08:37;101218.81;;;25.11;52.63
21290;BME280;10804;48.988;2.408;2022-07-22T01:11:09;101221.72;;;25.08;52.85
21290;BME280;10804;48.988;2.408;2022-07-22T01:13:38;101215.78;;;25.04;52.84
21290;BME280;10804;48.988;2.408;2022-07-22T01:16:07;101213.97;;;25.05;52.75
21290;BME280;10804;48.988;2.408;2022-07-22T01:18:35;101215.88;;;25.03;52.78
21290;BME280;10804;48.988;2.408;2022-07-22T01:21:04;101213.22;;;25.03;52.79
21290;BME280;10804;48.988;2.408;2022-07-22T01:23:32;101223.88;;;25.03;52.82
21290;BME280;10804;48.988;2.408;2022-07-22T01:26:00;101221.56;;;24.98;52.83
21290;BME280;10804;48.988;2.408;2022-07-22T01:28:28;101213.81;;;24.95;52.96
21290;BME280;10804;48.988;2.408;2022-07-22T01:30:55;101211.16;;;24.95;52.91
21290;BME280;10804;48.988;2.408;2022-07-22T01:33:23;101216.59;;;24.94;52.96
21290;BME280;10804;48.988;2.408;2022-07-22T01:35:51;101213.19;;;24.92;52.84
21290;BME280;10804;48.988;2.408;2022-07-22T01:38:20;101212.47;;;24.90;52.82
21290;BME280;10804;48.988;2.408;2022-07-22T01:40:48;101215.25;;;24.88;52.94
21290;BME280;10804;48.988;2.408;2022-07-22T01:43:16;101205.66;;;24.86;52.91
21290;BME280;10804;48.988;2.408;2022-07-22T01:45:50;101203.97;;;24.85;52.90
21290;BME280;10804;48.988;2.408;2022-07-22T01:48:19;101201.31;;;24.85;53.02
21290;BME280;10804;48.988;2.408;2022-07-22T01:50:46;101207.72;;;24.82;52.88
21290;BME280;10804;48.988;2.408;2022-07-22T01:53:14;101203.47;;;24.80;53.06
21290;BME280;10804;48.988;2.408;2022-07-22T01:55:43;101201.03;;;24.77;53.18
21290;BME280;10804;48.988;2.408;2022-07-22T01:58:11;101203.72;;;24.77;52.98
21290;BME280;10804;48.988;2.408;2022-07-22T02:00:38;101204.69;;;24.76;53.03
21290;BME280;10804;48.988;2.408;2022-07-22T02:03:06;101209.16;;;24.75;53.02
21290;BME280;10804;48.988;2.408;2022-07-22T02:05:33;101194.25;;;24.73;53.00
21290;BME280;10804;48.988;2.408;2022-07-22T02:08:09;101198.09;;;24.69;52.88
21290;BME280;10804;48.988;2.408;2022-07-22T02:10:56;101189.25;;;24.68;52.92
21290;BME280;10804;48.988;2.408;2022-07-22T02:13:24;101191.91;;;24.68;52.97
21290;BME280;10804;48.988;2.408;2022-07-22T02:15:52;101195.53;;;24.67;53.10
21290;BME280;10804;48.988;2.408;2022-07-22T02:18:20;101201.97;;;24.65;53.17
21290;BME280;10804;48.988;2.408;2022-07-22T02:20:47;101204.78;;;24.64;53.08
21290;BME280;10804;48.988;2.408;2022-07-22T02:23:15;101201.38;;;24.62;53.10
21290;BME280;10804;48.988;2.408;2022-07-22T02:25:43;101204.16;;;24.60;53.03
21290;BME280;10804;48.988;2.408;2022-07-22T02:28:12;101209.50;;;24.60;53.11
21290;BME280;10804;48.988;2.408;2022-07-22T02:30:39;101207.91;;;24.58;53.03
21290;BME280;10804;48.988;2.408;2022-07-22T02:33:07;101200.88;;;24.57;52.93
21290;BME280;10804;48.988;2.408;2022-07-22T02:35:34;101210.88;;;24.53;53.01
21290;BME280;10804;48.988;2.408;2022-07-22T02:38:03;101204.69;;;24.52;53.21
21290;BME280;10804;48.988;2.408;2022-07-22T02:40:32;101203.97;;;24.51;53.25
21290;BME280;10804;48.988;2.408;2022-07-22T02:43:00;101207.69;;;24.48;53.17
21290;BME280;10804;48.988;2.408;2022-07-22T02:45:29;101208.66;;;24.47;53.25
21290;BME280;10804;48.988;2.408;2022-07-22T02:47:57;101198.47;;;24.41;53.28
21290;BME280;10804;48.988;2.408;2022-07-22T02:50:25;101202.59;;;24.45;53.08
21290;BME280;10804;48.988;2.408;2022-07-22T02:52:53;101204.66;;;24.42;53.31
21290;BME280;10804;48.988;2.408;2022-07-22T02:55:26;101216.28;;;24.41;53.18
21290;BME280;10804;48.988;2.408;2022-07-22T02:57:55;101213.72;;;24.39;53.17
21290;BME280;10804;48.988;2.408;2022-07-22T03:00:23;101205.84;;;24.38;53.15
21290;BME280;10804;48.988;2.408;2022-07-22T03:02:52;101199.78;;;24.36;53.13
21290;BME280;10804;48.988;2.408;2022-07-22T03:05:20;101205.22;;;24.34;53.19
21290;BME280;10804;48.988;2.408;2022-07-22T03:07:53;101203.50;;;24.33;53.35
21290;BME280;10804;48.988;2.408;2022-07-22T03:10:21;101205.47;;;24.31;53.21
21290;BME280;10804;48.988;2.408;2022-07-22T03:12:49;101184.38;;;24.28;53.31
21290;BME280;10804;48.988;2.408;2022-07-22T03:15:17;101185.31;;;24.27;53.10
21290;BME280;10804;48.988;2.408;2022-07-22T03:17:45;101197.06;;;24.25;53.22
21290;BME280;10804;48.988;2.408;2022-07-22T03:20:13;101187.47;;;24.22;53.19
21290;BME280;10804;48.988;2.408;2022-07-22T03:22:41;101182.16;;;24.22;53.40
21290;BME280;10804;48.988;2.408;2022-07-22T03:25:08;101188.56;;;24.20;53.42
21290;BME280;10804;48.988;2.408;2022-07-22T03:27:37;101185.16;;;24.18;53.39
21290;BME280;10804;48.988;2.408;2022-07-22T03:30:05;101191.56;;;24.15;53.35
21290;BME280;10804;48.988;2.408;2022-07-22T03:32:37;101186.47;;;24.12;53.33
21290;BME280;10804;48.988;2.408;2022-07-22T03:35:06;101182.09;;;24.11;53.24
21290;BME280;10804;48.988;2.408;2022-07-22T03:37:41;101186.69;;;24.09;53.43
21290;BME280;10804;48.988;2.408;2022-07-22T03:40:09;101183.28;;;24.07;53.60
21290;BME280;10804;48.988;2.408;2022-07-22T03:42:39;101187.91;;;24.05;53.43
21290;BME280;10804;48.988;2.408;2022-07-22T03:45:07;101187.13;;;24.03;53.52
21290;BME280;10804;48.988;2.408;2022-07-22T03:47:38;101188.09;;;24.02;53.34
21290;BME280;10804;48.988;2.408;2022-07-22T03:50:07;101191.63;;;24.03;53.41
21290;BME280;10804;48.988;2.408;2022-07-22T03:52:35;101191.84;;;24.00;53.58
21290;BME280;10804;48.988;2.408;2022-07-22T03:55:08;101193.66;;;23.99;53.46
21290;BME280;10804;48.988;2.408;2022-07-22T03:57:35;101189.31;;;23.98;53.49
21290;BME280;10804;48.988;2.408;2022-07-22T04:00:23;101185.88;;;23.96;53.51
21290;BME280;10804;48.988;2.408;2022-07-22T04:02:50;101189.50;;;23.95;53.62
21290;BME280;10804;48.988;2.408;2022-07-22T04:05:26;101190.47;;;23.94;53.45
21290;BME280;10804;48.988;2.408;2022-07-22T04:07:54;101189.75;;;23.92;53.59
21290;BME280;10804;48.988;2.408;2022-07-22T04:10:23;101187.19;;;23.91;53.54
21290;BME280;10804;48.988;2.408;2022-07-22T04:12:50;101190.00;;;23.89;53.67
21290;BME280;10804;48.988;2.408;2022-07-22T04:15:26;101184.88;;;23.86;53.42
21290;BME280;10804;48.988;2.408;2022-07-22T04:17:54;101181.44;;;23.84;53.63
21290;BME280;10804;48.988;2.408;2022-07-22T04:20:21;101176.22;;;23.83;53.56
21290;BME280;10804;48.988;2.408;2022-07-22T04:23:09;101178.97;;;23.81;53.71
21290;BME280;10804;48.988;2.408;2022-07-22T04:25:38;101173.06;;;23.78;53.36
21290;BME280;10804;48.988;2.408;2022-07-22T04:28:05;101174.00;;;23.77;53.53
21290;BME280;10804;48.988;2.408;2022-07-22T04:30:32;101176.78;;;23.75;53.59
21290;BME280;10804;48.988;2.408;2022-07-22T04:33:00;101170.59;;;23.75;53.60
21290;BME280;10804;48.988;2.408;2022-07-22T04:35:28;101165.38;;;23.73;53.78
21290;BME280;10804;48.988;2.408;2022-07-22T04:38:08;101173.59;;;23.70;53.69
21290;BME280;10804;48.988;2.408;2022-07-22T04:40:39;101166.56;;;23.69;53.52
21290;BME280;10804;48.988;2.408;2022-07-22T04:43:07;101163.91;;;23.69;53.77
21290;BME280;10804;48.988;2.408;2022-07-22T04:45:34;101164.00;;;23.68;53.42
21290;BME280;10804;48.988;2.408;2022-07-22T04:48:02;101163.38;;;23.64;53.73
21290;BME280;10804;48.988;2.408;2022-07-22T04:50:30;101162.53;;;23.64;53.71
21290;BME280;10804;48.988;2.408;2022-07-22T04:52:59;101159.00;;;23.63;53.62
21290;BME280;10804;48.988;2.408;2022-07-22T04:55:26;101162.75;;;23.61;53.55
21290;BME280;10804;48.988;2.408;2022-07-22T04:57:55;101167.25;;;23.60;53.79
21290;BME280;10804;48.988;2.408;2022-07-22T05:00:23;101152.44;;;23.56;53.69
21290;BME280;10804;48.988;2.408;2022-07-22T05:02:53;101156.78;;;23.57;53.74
21290;BME280;10804;48.988;2.408;2022-07-22T05:05:22;101153.41;;;23.55;53.89
21290;BME280;10804;48.988;2.408;2022-07-22T05:07:49;101152.56;;;23.55;53.83
21290;BME280;10804;48.988;2.408;2022-07-22T05:10:17;101156.16;;;23.54;53.64
21290;BME280;10804;48.988;2.408;2022-07-22T05:12:44;101155.44;;;23.52;53.65
21290;BME280;10804;48.988;2.408;2022-07-22T05:15:14;101153.81;;;23.49;53.81
21290;BME280;10804;48.988;2.408;2022-07-22T05:17:41;101155.53;;;23.50;53.98
21290;BME280;10804;48.988;2.408;2022-07-22T05:20:29;101149.47;;;23.48;54.03
21290;BME280;10804;48.988;2.408;2022-07-22T05:22:56;101155.75;;;23.47;54.08
21290;BME280;10804;48.988;2.408;2022-07-22T05:25:27;101150.44;;;23.47;53.96
21290;BME280;10804;48.988;2.408;2022-07-22T05:27:55;101150.44;;;23.47;53.65
21290;BME280;10804;48.988;2.408;2022-07-22T05:30:32;101140.75;;;23.46;53.85
21290;BME280;10804;48.988;2.408;2022-07-22T05:33:02;101141.72;;;23.45;53.80
21290;BME280;10804;48.988;2.408;2022-07-22T05:36:02;101140.75;;;23.46;54.01
21290;BME280;10804;48.988;2.408;2022-07-22T05:38:36;101141.81;;;23.44;53.93
21290;BME280;10804;48.988;2.408;2022-07-22T05:41:05;101146.19;;;23.45;53.82
21290;BME280;10804;48.988;2.408;2022-07-22T05:43:32;101147.03;;;23.45;53.81
21290;BME280;10804;48.988;2.408;2022-07-22T05:46:03;101148.84;;;23.45;54.01
21290;BME280;10804;48.988;2.408;2022-07-22T05:48:31;101147.13;;;23.44;53.94
21290;BME280;10804;48.988;2.408;2022-07-22T05:50:58;101146.19;;;23.45;53.83
21290;BME280;10804;48.988;2.408;2022-07-22T05:53:26;101145.34;;;23.44;53.91
21290;BME280;10804;48.988;2.408;2022-07-22T05:55:53;101133.81;;;23.44;53.82
21290;BME280;10804;48.988;2.408;2022-07-22T05:58:21;101147.88;;;23.46;53.71
21290;BME280;10804;48.988;2.408;2022-07-22T06:00:48;101144.38;;;23.45;53.71
21290;BME280;10804;48.988;2.408;2022-07-22T06:03:17;101147.03;;;23.45;53.83
21290;BME280;10804;48.988;2.408;2022-07-22T06:05:45;101143.41;;;23.46;53.69
21290;BME280;10804;48.988;2.408;2022-07-22T06:08:12;101131.69;;;23.49;53.95
21290;BME280;10804;48.988;2.408;2022-07-22T06:10:46;101132.75;;;23.46;54.11
21290;BME280;10804;48.988;2.408;2022-07-22T06:13:13;101132.53;;;23.49;54.03
21290;BME280;10804;48.988;2.408;2022-07-22T06:15:42;101133.50;;;23.48;53.97
21290;BME280;10804;48.988;2.408;2022-07-22T06:18:11;101127.19;;;23.49;53.73
21290;BME280;10804;48.988;2.408;2022-07-22T06:20:40;101138.63;;;23.51;54.07
21290;BME280;10804;48.988;2.408;2022-07-22T06:23:08;101147.44;;;23.52;54.06
21290;BME280;10804;48.988;2.408;2022-07-22T06:25:36;101148.31;;;23.52;53.92
21290;BME280;10804;48.988;2.408;2022-07-22T06:28:04;101147.34;;;23.53;53.74
21290;BME280;10804;48.988;2.408;2022-07-22T06:30:31;101150.00;;;23.53;54.07
21290;BME280;10804;48.988;2.408;2022-07-22T06:32:58;101145.41;;;23.55;53.88
21290;BME280;10804;48.988;2.408;2022-07-22T06:35:26;101137.41;;;23.55;54.08
21290;BME280;10804;48.988;2.408;2022-07-22T06:37:55;101138.28;;;23.56;53.84
21290;BME280;10804;48.988;2.408;2022-07-22T06:40:24;101133.78;;;23.56;53.91
21290;BME280;10804;48.988;2.408;2022-07-22T06:43:00;101130.91;;;23.59;54.06
21290;BME280;10804;48.988;2.408;2022-07-22T06:45:46;101143.38;;;23.59;53.92
21290;BME280;10804;48.988;2.408;2022-07-22T06:48:26;101136.13;;;23.61;53.90
21290;BME280;10804;48.988;2.408;2022-07-22T06:50:53;101145.69;;;23.63;53.91
21290;BME280;10804;48.988;2.408;2022-07-22T06:53:23;101137.59;;;23.65;54.04
21290;BME280;10804;48.988;2.408;2022-07-22T06:55:50;101135.91;;;23.64;53.80
21290;BME280;10804;48.988;2.408;2022-07-22T06:58:19;101151.75;;;23.65;53.79
21290;BME280;10804;48.988;2.408;2022-07-22T07:00:46;101149.00;;;23.67;54.03
21290;BME280;10804;48.988;2.408;2022-07-22T07:03:22;101155.91;;;23.69;54.06
21290;BME280;10804;48.988;2.408;2022-07-22T07:05:53;101154.22;;;23.68;53.96
21290;BME280;10804;48.988;2.408;2022-07-22T07:08:20;101146.97;;;23.70;54.09
21290;BME280;10804;48.988;2.408;2022-07-22T07:10:49;101153.97;;;23.71;53.99
21290;BME280;10804;48.988;2.408;2022-07-22T07:13:17;101158.34;;;23.72;54.00
21290;BME280;10804;48.988;2.408;2022-07-22T07:15:47;101149.28;;;23.75;53.98
21290;BME280;10804;48.988;2.408;2022-07-22T07:18:15;101150.16;;;23.75;53.90
21290;BME280;10804;48.988;2.408;2022-07-22T07:20:42;101142.88;;;23.77;54.06
21290;BME280;10804;48.988;2.408;2022-07-22T07:23:10;101142.97;;;23.76;54.10
21290;BME280;10804;48.988;2.408;2022-07-22T07:25:44;101136.47;;;23.80;54.27
21290;BME280;10804;48.988;2.408;2022-07-22T07:28:13;101130.09;;;23.82;54.17
21290;BME280;10804;48.988;2.408;2022-07-22T07:31:03;101117.69;;;23.81;53.87
21290;BME280;10804;48.988;2.408;2022-07-22T07:33:32;101130.75;;;23.86;54.05
21290;BME280;10804;48.988;2.408;2022-07-22T07:36:00;101134.03;;;23.89;54.14
21290;BME280;10804;48.988;2.408;2022-07-22T07:38:36;101130.59;;;23.87;53.95
21290;BME280;10804;48.988;2.408;2022-07-22T07:41:10;101131.22;;;23.91;54.11
21290;BME280;10804;48.988;2.408;2022-07-22T07:43:40;101134.53;;;23.94;54.08
21290;BME280;10804;48.988;2.408;2022-07-22T07:46:08;101136.34;;;23.94;53.93
21290;BME280;10804;48.988;2.408;2022-07-22T07:48:35;101140.81;;;23.93;54.22
21290;BME280;10804;48.988;2.408;2022-07-22T07:51:03;101143.03;;;23.99;54.13
21290;BME280;10804;48.988;2.408;2022-07-22T07:53:31;101135.75;;;24.01;54.51
21290;BME280;10804;48.988;2.408;2022-07-22T07:55:59;101127.88;;;24.00;54.02
21290;BME280;10804;48.988;2.408;2022-07-22T07:58:26;101128.63;;;24.02;54.02
21290;BME280;10804;48.988;2.408;2022-07-22T08:00:55;101142.59;;;24.05;54.05
21290;BME280;10804;48.988;2.408;2022-07-22T08:03:23;101152.28;;;24.06;54.03
21290;BME280;10804;48.988;2.408;2022-07-22T08:05:50;101144.03;;;24.09;54.22
21290;BME280;10804;48.988;2.408;2022-07-22T08:08:24;101143.94;;;24.11;54.27
21290;BME280;10804;48.988;2.408;2022-07-22T08:10:52;101142.72;;;24.15;54.08
21290;BME280;10804;48.988;2.408;2022-07-22T08:13:32;101138.25;;;24.15;53.94
21290;BME280;10804;48.988;2.408;2022-07-22T08:16:19;101133.66;;;24.17;54.21
21290;BME280;10804;48.988;2.408;2022-07-22T08:18:47;101132.69;;;24.18;54.14
21290;BME280;10804;48.988;2.408;2022-07-22T08:21:15;101127.97;;;24.22;54.06
21290;BME280;10804;48.988;2.408;2022-07-22T08:23:49;101123.50;;;24.22;54.26
21290;BME280;10804;48.988;2.408;2022-07-22T08:26:17;101115.97;;;24.27;54.28
21290;BME280;10804;48.988;2.408;2022-07-22T08:28:45;101123.03;;;24.28;53.98
21290;BME280;10804;48.988;2.408;2022-07-22T08:31:13;101119.16;;;24.32;53.91
21290;BME280;10804;48.988;2.408;2022-07-22T08:33:42;101118.94;;;24.35;54.28
21290;BME280;10804;48.988;2.408;2022-07-22T08:36:09;101117.00;;;24.37;54.28
21290;BME280;10804;48.988;2.408;2022-07-22T08:38:37;101120.41;;;24.39;54.17
21290;BME280;10804;48.988;2.408;2022-07-22T08:41:05;101127.94;;;24.45;55.34
21290;BME280;10804;48.988;2.408;2022-07-22T08:43:35;101124.41;;;24.45;54.17
21290;BME280;10804;48.988;2.408;2022-07-22T08:46:03;101120.66;;;24.47;54.27
21290;BME280;10804;48.988;2.408;2022-07-22T08:48:44;101116.03;;;24.49;54.02
21290;BME280;10804;48.988;2.408;2022-07-22T08:51:26;101113.38;;;24.49;54.05
21290;BME280;10804;48.988;2.408;2022-07-22T08:54:13;101106.84;;;24.53;54.33
21290;BME280;10804;48.988;2.408;2022-07-22T08:56:41;101092.53;;;24.54;54.33
21290;BME280;10804;48.988;2.408;2022-07-22T08:59:08;101095.00;;;24.57;54.15
21290;BME280;10804;48.988;2.408;2022-07-22T09:01:36;101085.06;;;24.59;54.33
21290;BME280;10804;48.988;2.408;2022-07-22T09:04:05;101078.78;;;24.60;54.31
21290;BME280;10804;48.988;2.408;2022-07-22T09:06:35;101068.00;;;24.62;54.21
21290;BME280;10804;48.988;2.408;2022-07-22T09:09:06;101057.91;;;24.65;54.40
21290;BME280;10804;48.988;2.408;2022-07-22T09:12:05;101036.34;;;24.68;54.29
21290;BME280;10804;48.988;2.408;2022-07-22T09:14:45;101015.59;;;24.72;54.42
21290;BME280;10804;48.988;2.408;2022-07-22T09:17:33;101012.81;;;24.73;54.90
21290;BME280;10804;48.988;2.408;2022-07-22T09:20:23;100997.53;;;24.75;54.58
21290;BME280;10804;48.988;2.408;2022-07-22T09:23:11;101024.66;;;24.80;54.48
21290;BME280;10804;48.988;2.408;2022-07-22T09:25:41;101045.78;;;24.83;55.14
21290;BME280;10804;48.988;2.408;2022-07-22T09:28:53;101058.16;;;24.84;54.60
21290;BME280;10804;48.988;2.408;2022-07-22T09:31:28;101079.25;;;24.87;54.51
21290;BME280;10804;48.988;2.408;2022-07-22T09:34:26;101091.41;;;24.91;54.54
21290;BME280;10804;48.988;2.408;2022-07-22T09:36:57;101094.78;;;24.93;54.50
21290;BME280;10804;48.988;2.408;2022-07-22T09:39:27;101101.00;;;24.93;54.41
21290;BME280;10804;48.988;2.408;2022-07-22T09:41:57;101094.31;;;24.99;54.90
21290;BME280;10804;48.988;2.408;2022-07-22T09:44:25;101098.69;;;25.00;54.96
21290;BME280;10804;48.988;2.408;2022-07-22T09:46:54;101096.63;;;25.03;55.17
21290;BME280;10804;48.988;2.408;2022-07-22T09:49:42;101077.94;;;25.03;54.65
21290;BME280;10804;48.988;2.408;2022-07-22T09:52:52;101066.06;;;25.07;54.64
21290;BME280;10804;48.988;2.408;2022-07-22T09:55:27;101066.63;;;25.11;54.78
21290;BME280;10804;48.988;2.408;2022-07-22T09:57:57;101068.81;;;25.17;54.80
21290;BME280;10804;48.988;2.408;2022-07-22T10:00:27;101071.47;;;25.17;54.52
21290;BME280;10804;48.988;2.408;2022-07-22T10:02:58;101076.59;;;25.20;54.47
21290;BME280;10804;48.988;2.408;2022-07-22T10:05:29;101090.69;;;25.22;54.54
21290;BME280;10804;48.988;2.408;2022-07-22T10:07:59;101090.44;;;25.25;54.46
21290;BME280;10804;48.988;2.408;2022-07-22T10:10:30;101086.78;;;25.26;54.56
21290;BME280;10804;48.988;2.408;2022-07-22T10:12:59;101084.84;;;25.28;54.40
21290;BME280;10804;48.988;2.408;2022-07-22T10:15:29;101081.94;;;25.31;54.39
21290;BME280;10804;48.988;2.408;2022-07-22T10:17:58;101080.72;;;25.35;54.59
21290;BME280;10804;48.988;2.408;2022-07-22T10:20:29;101074.41;;;25.36;54.46
21290;BME280;10804;48.988;2.408;2022-07-22T10:23:00;101076.59;;;25.42;54.66
21290;BME280;10804;48.988;2.408;2022-07-22T10:25:30;101076.59;;;25.42;54.28
21290;BME280;10804;48.988;2.408;2022-07-22T10:28:00;101070.97;;;25.45;54.46
21290;BME280;10804;48.988;2.408;2022-07-22T10:30:30;101069.03;;;25.47;54.43
21290;BME280;10804;48.988;2.408;2022-07-22T10:33:02;101058.22;;;25.48;54.54
21290;BME280;10804;48.988;2.408;2022-07-22T10:35:31;101058.94;;;25.50;54.35
21290;BME280;10804;48.988;2.408;2022-07-22T10:38:07;101059.78;;;25.51;54.59
21290;BME280;10804;48.988;2.408;2022-07-22T10:40:49;101055.88;;;25.55;54.71
21290;BME280;10804;48.988;2.408;2022-07-22T10:43:18;101048.84;;;25.54;54.26
21290;BME280;10804;48.988;2.408;2022-07-22T10:45:48;101046.06;;;25.55;54.40
21290;BME280;10804;48.988;2.408;2022-07-22T10:48:18;101051.13;;;25.58;54.31
21290;BME280;10804;48.988;2.408;2022-07-22T10:50:48;101052.84;;;25.59;54.32
21290;BME280;10804;48.988;2.408;2022-07-22T10:53:20;101050.03;;;25.61;54.18
21290;BME280;10804;48.988;2.408;2022-07-22T10:55:59;101046.38;;;25.62;54.37
21290;BME280;10804;48.988;2.408;2022-07-22T10:58:44;101019.66;;;25.62;54.17
21290;BME280;10804;48.988;2.408;2022-07-22T11:01:13;100991.13;;;25.62;54.15
21290;BME280;10804;48.988;2.408;2022-07-22T11:03:43;100955.53;;;25.62;54.47
21290;BME280;10804;48.988;2.408;2022-07-22T11:06:25;100936.72;;;25.63;54.60
21290;BME280;10804;48.988;2.408;2022-07-22T11:08:55;100932.22;;;25.64;54.78
21290;BME280;10804;48.988;2.408;2022-07-22T11:11:35;100918.03;;;25.63;54.91
21290;BME280;10804;48.988;2.408;2022-07-22T11:14:16;100908.16;;;25.64;54.88
21290;BME280;10804;48.988;2.408;2022-07-22T11:16:45;100894.81;;;25.64;55.13
21290;BME280;10804;48.988;2.408;2022-07-22T11:19:13;100889.22;;;25.67;55.56
21290;BME280;10804;48.988;2.408;2022-07-22T11:21:40;100900.88;;;25.66;55.62
21290;BME280;10804;48.988;2.408;2022-07-22T11:24:09;100891.41;;;25.62;55.45
21290;BME280;10804;48.988;2.408;2022-07-22T11:26:40;100901.88;;;25.65;55.68
21290;BME280;10804;48.988;2.408;2022-07-22T11:29:08;100893.00;;;25.64;55.90
21290;BME280;10804;48.988;2.408;2022-07-22T11:31:37;100871.50;;;25.66;55.54
21290;BME280;10804;48.988;2.408;2022-07-22T11:34:07;100849.25;;;25.65;55.55
21290;BME280;10804;48.988;2.408;2022-07-22T11:36:36;100856.28;;;25.66;55.71
21290;BME280;10804;48.988;2.408;2022-07-22T11:39:05;100869.66;;;25.66;55.46
21290;BME280;10804;48.988;2.408;2022-07-22T11:41:35;100895.53;;;25.66;55.42
21290;BME280;10804;48.988;2.408;2022-07-22T11:44:03;100900.88;;;25.66;55.67
21290;BME280;10804;48.988;2.408;2022-07-22T11:46:35;100901.72;;;25.66;55.63
21290;BME280;10804;48.988;2.408;2022-07-22T11:49:03;100887.53;;;25.66;55.30
21290;BME280;10804;48.988;2.408;2022-07-22T11:51:32;100872.31;;;25.66;55.49
21290;BME280;10804;48.988;2.408;2022-07-22T11:54:00;100863.31;;;25.67;55.76
21290;BME280;10804;48.988;2.408;2022-07-22T11:56:27;100882.88;;;25.68;55.36
21290;BME280;10804;48.988;2.408;2022-07-22T11:58:56;100905.25;;;25.67;55.63
21290;BME280;10804;48.988;2.408;2022-07-22T12:01:26;100938.13;;;25.67;55.52
21290;BME280;10804;48.988;2.408;2022-07-22T12:03:56;100948.00;;;25.67;55.28
21290;BME280;10804;48.988;2.408;2022-07-22T12:06:26;100951.50;;;25.67;55.63
21290;BME280;10804;48.988;2.408;2022-07-22T12:08:55;100959.41;;;25.69;55.54
21290;BME280;10804;48.988;2.408;2022-07-22T12:11:24;100971.94;;;25.68;54.98
21290;BME280;10804;48.988;2.408;2022-07-22T12:13:52;100980.06;;;25.67;55.08
21290;BME280;10804;48.988;2.408;2022-07-22T12:16:27;100999.47;;;25.69;55.24
21290;BME280;10804;48.988;2.408;2022-07-22T12:18:57;101005.81;;;25.68;55.14
21290;BME280;10804;48.988;2.408;2022-07-22T12:21:26;100997.78;;;25.68;55.09
21290;BME280;10804;48.988;2.408;2022-07-22T12:23:56;101000.19;;;25.71;54.84
21290;BME280;10804;48.988;2.408;2022-07-22T12:26:41;101013.56;;;25.71;54.86
21290;BME280;10804;48.988;2.408;2022-07-22T12:29:14;100997.53;;;25.71;54.82
21290;BME280;10804;48.988;2.408;2022-07-22T12:31:44;100979.69;;;25.71;55.16
21290;BME280;10804;48.988;2.408;2022-07-22T12:34:12;100963.66;;;25.71;55.16
21290;BME280;10804;48.988;2.408;2022-07-22T12:36:43;100963.53;;;25.73;54.94
21290;BME280;10804;48.988;2.408;2022-07-22T12:39:13;100958.03;;;25.74;55.05
21290;BME280;10804;48.988;2.408;2022-07-22T12:41:46;100958.88;;;25.75;55.27
21290;BME280;10804;48.988;2.408;2022-07-22T12:44:22;100973.94;;;25.76;55.26
21290;BME280;10804;48.988;2.408;2022-07-22T12:46:53;100997.00;;;25.77;55.04
21290;BME280;10804;48.988;2.408;2022-07-22T12:49:22;100997.88;;;25.77;55.40
21290;BME280;10804;48.988;2.408;2022-07-22T12:52:06;101010.25;;;25.78;55.19
21290;BME280;10804;48.988;2.408;2022-07-22T12:54:34;100986.19;;;25.78;55.29
21290;BME280;10804;48.988;2.408;2022-07-22T12:57:02;100964.69;;;25.80;55.06
21290;BME280;10804;48.988;2.408;2022-07-22T12:59:30;100958.38;;;25.81;55.05
21290;BME280;10804;48.988;2.408;2022-07-22T13:01:59;100957.38;;;25.82;55.14
21290;BME280;10804;48.988;2.408;2022-07-22T13:04:27;100958.09;;;25.84;55.24
21290;BME280;10804;48.988;2.408;2022-07-22T13:06:54;100955.44;;;25.84;55.21
21290;BME280;10804;48.988;2.408;2022-07-22T13:09:21;100963.31;;;25.85;55.15